sensor_id;sensor_type;location;lat;lon;timestamp;P1;durP1;ratioP1;P2;durP2;ratioP2
23304;SDS011;11821;51.456;8.844;2022-10-04T00:01:44;6.63;;;2.35;;
23304;SDS011;11821;51.456;8.844;2022-10-04T00:04:27;6.53;;;2.53;;
23304;SDS011;11821;51.456;8.844;2022-10-04T00:07:12;5.80;;;2.70;;
23304;SDS011;11821;51.456;8.844;2022-10-04T00:09:51;3.88;;;2.42;;
23304;SDS011;11821;51.456;8.844;2022-10-04T00:12:44;8.18;;;2.60;;
23304;SDS011;11821;51.456;8.844;2022-10-04T00:25:51;7.97;;;2.60;;
23304;SDS011;11821;51.456;8.844;2022-10-04T00:31:12;7.57;;;2.42;;
23304;SDS011;11821;51.456;8.844;2022-10-04T00:33:46;3.97;;;2.03;;
23304;SDS011;11821;51.456;8.844;2022-10-04T00:47:17;8.77;;;2.67;;
23304;SDS011;11821;51.456;8.844;2022-10-04T00:50:01;7.63;;;3.05;;
23304;SDS011;11821;51.456;8.844;2022-10-04T00:52:35;6.05;;;3.00;;
23304;SDS011;11821;51.456;8.844;2022-10-04T00:55:20;7.13;;;3.22;;
23304;SDS011;11821;51.456;8.844;2022-10-04T00:57:52;3.58;;;2.60;;
23304;SDS011;11821;51.456;8.844;2022-10-04T01:00:24;3.22;;;2.50;;
23304;SDS011;11821;51.456;8.844;2022-10-04T01:05:32;6.30;;;2.55;;
23304;SDS011;11821;51.456;8.844;2022-10-04T01:08:03;5.80;;;2.67;;
23304;SDS011;11821;51.456;8.844;2022-10-04T01:10:31;4.70;;;2.35;;
23304;SDS011;11821;51.456;8.844;2022-10-04T01:15:47;5.72;;;2.55;;
23304;SDS011;11821;51.456;8.844;2022-10-04T01:20:58;5.38;;;2.47;;
23304;SDS011;11821;51.456;8.844;2022-10-04T01:28:58;4.30;;;2.33;;
23304;SDS011;11821;51.456;8.844;2022-10-04T01:31:28;7.40;;;2.80;;
23304;SDS011;11821;51.456;8.844;2022-10-04T01:33:56;3.65;;;2.50;;
23304;SDS011;11821;51.456;8.844;2022-10-04T01:36:25;7.90;;;2.53;;
23304;SDS011;11821;51.456;8.844;2022-10-04T01:38:52;5.38;;;2.70;;
23304;SDS011;11821;51.456;8.844;2022-10-04T01:41:25;6.38;;;2.50;;
23304;SDS011;11821;51.456;8.844;2022-10-04T01:43:57;6.90;;;2.67;;
23304;SDS011;11821;51.456;8.844;2022-10-04T01:46:27;5.43;;;2.42;;
23304;SDS011;11821;51.456;8.844;2022-10-04T01:49:02;6.60;;;2.22;;
23304;SDS011;11821;51.456;8.844;2022-10-04T01:51:34;4.45;;;2.10;;
23304;SDS011;11821;51.456;8.844;2022-10-04T01:54:10;5.93;;;2.00;;
23304;SDS011;11821;51.456;8.844;2022-10-04T01:56:45;5.70;;;3.17;;
23304;SDS011;11821;51.456;8.844;2022-10-04T01:59:18;7.70;;;3.47;;
23304;SDS011;11821;51.456;8.844;2022-10-04T02:01:54;3.05;;;2.22;;
23304;SDS011;11821;51.456;8.844;2022-10-04T02:04:26;7.05;;;2.10;;
23304;SDS011;11821;51.456;8.844;2022-10-04T02:07:09;5.25;;;2.55;;
23304;SDS011;11821;51.456;8.844;2022-10-04T02:09:37;9.20;;;2.22;;
23304;SDS011;11821;51.456;8.844;2022-10-04T02:12:08;4.80;;;2.10;;
23304;SDS011;11821;51.456;8.844;2022-10-04T02:14:43;7.78;;;2.40;;
23304;SDS011;11821;51.456;8.844;2022-10-04T02:17:18;7.53;;;2.50;;
23304;SDS011;11821;51.456;8.844;2022-10-04T02:19:52;4.72;;;2.30;;
23304;SDS011;11821;51.456;8.844;2022-10-04T02:22:19;4.63;;;2.67;;
23304;SDS011;11821;51.456;8.844;2022-10-04T02:24:49;5.22;;;2.83;;
23304;SDS011;11821;51.456;8.844;2022-10-04T02:27:17;5.18;;;2.58;;
23304;SDS011;11821;51.456;8.844;2022-10-04T02:29:44;4.57;;;2.33;;
23304;SDS011;11821;51.456;8.844;2022-10-04T02:32:10;3.45;;;2.20;;
23304;SDS011;11821;51.456;8.844;2022-10-04T02:34:57;3.03;;;2.13;;
23304;SDS011;11821;51.456;8.844;2022-10-04T02:37:24;5.65;;;2.40;;
23304;SDS011;11821;51.456;8.844;2022-10-04T02:39:53;5.28;;;2.53;;
23304;SDS011;11821;51.456;8.844;2022-10-04T02:47:43;6.30;;;2.75;;
23304;SDS011;11821;51.456;8.844;2022-10-04T02:50:27;3.78;;;2.28;;
23304;SDS011;11821;51.456;8.844;2022-10-04T02:53:23;6.60;;;2.35;;
23304;SDS011;11821;51.456;8.844;2022-10-04T02:55:54;4.72;;;2.28;;
23304;SDS011;11821;51.456;8.844;2022-10-04T02:58:21;5.75;;;2.50;;
23304;SDS011;11821;51.456;8.844;2022-10-04T03:00:59;12.27;;;2.58;;
23304;SDS011;11821;51.456;8.844;2022-10-04T03:03:27;4.50;;;2.10;;
23304;SDS011;11821;51.456;8.844;2022-10-04T03:06:06;5.07;;;2.38;;
23304;SDS011;11821;51.456;8.844;2022-10-04T03:08:36;6.63;;;2.10;;
23304;SDS011;11821;51.456;8.844;2022-10-04T03:11:21;7.43;;;2.20;;
23304;SDS011;11821;51.456;8.844;2022-10-04T03:13:50;4.85;;;2.13;;
23304;SDS011;11821;51.456;8.844;2022-10-04T03:16:19;3.50;;;1.77;;
23304;SDS011;11821;51.456;8.844;2022-10-04T03:18:47;4.45;;;2.10;;
23304;SDS011;11821;51.456;8.844;2022-10-04T03:21:15;7.30;;;2.55;;
23304;SDS011;11821;51.456;8.844;2022-10-04T03:23:43;3.83;;;2.42;;
23304;SDS011;11821;51.456;8.844;2022-10-04T03:29:04;7.07;;;2.47;;
23304;SDS011;11821;51.456;8.844;2022-10-04T03:31:44;3.35;;;2.67;;
23304;SDS011;11821;51.456;8.844;2022-10-04T03:34:17;4.63;;;2.38;;
23304;SDS011;11821;51.456;8.844;2022-10-04T03:36:46;2.65;;;2.10;;
23304;SDS011;11821;51.456;8.844;2022-10-04T03:39:35;3.67;;;2.05;;
23304;SDS011;11821;51.456;8.844;2022-10-04T03:42:26;5.72;;;2.58;;
23304;SDS011;11821;51.456;8.844;2022-10-04T03:45:13;5.50;;;2.67;;
23304;SDS011;11821;51.456;8.844;2022-10-04T03:47:43;4.90;;;2.22;;
23304;SDS011;11821;51.456;8.844;2022-10-04T03:50:28;6.03;;;2.50;;
23304;SDS011;11821;51.456;8.844;2022-10-04T03:52:59;9.23;;;2.78;;
23304;SDS011;11821;51.456;8.844;2022-10-04T03:55:31;3.47;;;2.08;;
23304;SDS011;11821;51.456;8.844;2022-10-04T03:58:00;4.05;;;2.33;;
23304;SDS011;11821;51.456;8.844;2022-10-04T04:00:27;8.25;;;2.20;;
23304;SDS011;11821;51.456;8.844;2022-10-04T04:02:57;6.00;;;2.47;;
23304;SDS011;11821;51.456;8.844;2022-10-04T04:05:31;4.65;;;1.98;;
23304;SDS011;11821;51.456;8.844;2022-10-04T04:10:43;5.00;;;2.55;;
23304;SDS011;11821;51.456;8.844;2022-10-04T04:15:47;4.68;;;2.30;;
23304;SDS011;11821;51.456;8.844;2022-10-04T04:18:21;5.97;;;2.55;;
23304;SDS011;11821;51.456;8.844;2022-10-04T04:20:49;4.32;;;2.00;;
23304;SDS011;11821;51.456;8.844;2022-10-04T04:23:28;7.28;;;2.67;;
23304;SDS011;11821;51.456;8.844;2022-10-04T04:26:00;5.10;;;2.15;;
23304;SDS011;11821;51.456;8.844;2022-10-04T04:32:10;4.38;;;2.42;;
23304;SDS011;11821;51.456;8.844;2022-10-04T04:34:51;5.13;;;2.17;;
23304;SDS011;11821;51.456;8.844;2022-10-04T04:37:21;2.92;;;1.90;;
23304;SDS011;11821;51.456;8.844;2022-10-04T04:39:48;4.50;;;2.25;;
23304;SDS011;11821;51.456;8.844;2022-10-04T04:47:31;3.65;;;2.28;;
23304;SDS011;11821;51.456;8.844;2022-10-04T04:55:39;6.32;;;2.85;;
23304;SDS011;11821;51.456;8.844;2022-10-04T04:58:12;7.50;;;3.42;;
23304;SDS011;11821;51.456;8.844;2022-10-04T05:00:54;4.72;;;2.90;;
23304;SDS011;11821;51.456;8.844;2022-10-04T05:03:26;13.00;;;3.50;;
23304;SDS011;11821;51.456;8.844;2022-10-04T05:05:56;5.03;;;3.22;;
23304;SDS011;11821;51.456;8.844;2022-10-04T05:08:26;7.88;;;3.03;;
23304;SDS011;11821;51.456;8.844;2022-10-04T05:13:32;14.02;;;3.90;;
23304;SDS011;11821;51.456;8.844;2022-10-04T05:16:05;12.25;;;4.20;;
23304;SDS011;11821;51.456;8.844;2022-10-04T05:19:00;5.63;;;3.85;;
23304;SDS011;11821;51.456;8.844;2022-10-04T05:21:29;8.38;;;3.80;;
23304;SDS011;11821;51.456;8.844;2022-10-04T05:23:57;6.55;;;3.90;;
23304;SDS011;11821;51.456;8.844;2022-10-04T05:26:35;5.97;;;3.20;;
23304;SDS011;11821;51.456;8.844;2022-10-04T05:29:09;5.28;;;2.92;;
23304;SDS011;11821;51.456;8.844;2022-10-04T05:31:46;11.10;;;3.00;;
23304;SDS011;11821;51.456;8.844;2022-10-04T05:34:28;9.18;;;2.92;;
23304;SDS011;11821;51.456;8.844;2022-10-04T05:37:11;5.47;;;3.38;;
23304;SDS011;11821;51.456;8.844;2022-10-04T05:45:10;8.20;;;7.35;;
23304;SDS011;11821;51.456;8.844;2022-10-04T05:47:39;7.85;;;7.05;;
23304;SDS011;11821;51.456;8.844;2022-10-04T06:06:39;3.20;;;1.95;;
23304;SDS011;11821;51.456;8.844;2022-10-04T06:20:24;3.30;;;2.45;;
23304;SDS011;11821;51.456;8.844;2022-10-04T06:23:05;4.43;;;2.95;;
23304;SDS011;11821;51.456;8.844;2022-10-04T06:25:47;6.25;;;3.13;;
23304;SDS011;11821;51.456;8.844;2022-10-04T06:33:42;35.40;;;11.25;;
23304;SDS011;11821;51.456;8.844;2022-10-04T06:36:21;13.88;;;5.68;;
23304;SDS011;11821;51.456;8.844;2022-10-04T06:49:59;6.25;;;3.00;;
23304;SDS011;11821;51.456;8.844;2022-10-04T06:52:46;5.45;;;2.97;;
23304;SDS011;11821;51.456;8.844;2022-10-04T06:55:24;5.10;;;3.20;;
23304;SDS011;11821;51.456;8.844;2022-10-04T07:03:58;3.63;;;2.33;;
23304;SDS011;11821;51.456;8.844;2022-10-04T07:06:28;10.40;;;3.55;;
23304;SDS011;11821;51.456;8.844;2022-10-04T07:09:15;23.63;;;8.68;;
23304;SDS011;11821;51.456;8.844;2022-10-04T07:11:49;73.25;;;21.98;;
23304;SDS011;11821;51.456;8.844;2022-10-04T07:14:31;125.82;;;32.95;;
23304;SDS011;11821;51.456;8.844;2022-10-04T07:17:13;98.38;;;30.35;;
23304;SDS011;11821;51.456;8.844;2022-10-04T07:22:20;22.77;;;8.93;;
23304;SDS011;11821;51.456;8.844;2022-10-04T07:28:03;10.05;;;4.47;;
23304;SDS011;11821;51.456;8.844;2022-10-04T07:31:03;5.05;;;2.70;;
23304;SDS011;11821;51.456;8.844;2022-10-04T07:33:50;3.97;;;2.17;;
23304;SDS011;11821;51.456;8.844;2022-10-04T07:36:28;14.10;;;5.85;;
23304;SDS011;11821;51.456;8.844;2022-10-04T07:39:26;11.63;;;3.85;;
23304;SDS011;11821;51.456;8.844;2022-10-04T07:44:39;7.50;;;2.22;;
23304;SDS011;11821;51.456;8.844;2022-10-04T07:47:25;8.82;;;2.72;;
23304;SDS011;11821;51.456;8.844;2022-10-04T07:49:53;8.73;;;2.50;;
23304;SDS011;11821;51.456;8.844;2022-10-04T07:52:55;7.03;;;2.53;;
23304;SDS011;11821;51.456;8.844;2022-10-04T07:58:07;11.30;;;2.97;;
23304;SDS011;11821;51.456;8.844;2022-10-04T08:00:56;5.60;;;2.65;;
23304;SDS011;11821;51.456;8.844;2022-10-04T08:06:32;6.18;;;2.63;;
23304;SDS011;11821;51.456;8.844;2022-10-04T08:09:16;6.40;;;2.70;;
23304;SDS011;11821;51.456;8.844;2022-10-04T08:11:56;6.13;;;2.42;;
23304;SDS011;11821;51.456;8.844;2022-10-04T08:14:55;3.97;;;2.53;;
23304;SDS011;11821;51.456;8.844;2022-10-04T08:28:57;9.20;;;3.10;;
23304;SDS011;11821;51.456;8.844;2022-10-04T08:37:37;4.72;;;2.78;;
23304;SDS011;11821;51.456;8.844;2022-10-04T08:45:43;8.77;;;2.78;;
23304;SDS011;11821;51.456;8.844;2022-10-04T08:48:28;6.15;;;2.75;;
23304;SDS011;11821;51.456;8.844;2022-10-04T08:59:22;8.20;;;3.90;;
23304;SDS011;11821;51.456;8.844;2022-10-04T09:10:36;7.90;;;3.13;;
23304;SDS011;11821;51.456;8.844;2022-10-04T09:13:13;3.92;;;2.70;;
23304;SDS011;11821;51.456;8.844;2022-10-04T09:16:17;7.95;;;2.88;;
23304;SDS011;11821;51.456;8.844;2022-10-04T09:19:47;6.35;;;2.85;;
23304;SDS011;11821;51.456;8.844;2022-10-04T09:36:20;8.00;;;2.65;;
23304;SDS011;11821;51.456;8.844;2022-10-04T09:39:15;7.18;;;3.10;;
23304;SDS011;11821;51.456;8.844;2022-10-04T09:41:49;7.40;;;3.45;;
23304;SDS011;11821;51.456;8.844;2022-10-04T09:53:19;4.63;;;3.17;;
23304;SDS011;11821;51.456;8.844;2022-10-04T10:04:38;4.53;;;2.97;;
23304;SDS011;11821;51.456;8.844;2022-10-04T10:13:02;4.30;;;2.50;;
23304;SDS011;11821;51.456;8.844;2022-10-04T10:16:10;5.23;;;2.93;;
23304;SDS011;11821;51.456;8.844;2022-10-04T10:22:36;3.28;;;2.50;;
23304;SDS011;11821;51.456;8.844;2022-10-04T11:31:22;5.15;;;3.10;;
23304;SDS011;11821;51.456;8.844;2022-10-04T11:44:26;5.80;;;2.10;;
23304;SDS011;11821;51.456;8.844;2022-10-04T11:50:07;3.70;;;2.25;;
23304;SDS011;11821;51.456;8.844;2022-10-04T11:56:18;6.22;;;2.25;;
23304;SDS011;11821;51.456;8.844;2022-10-04T12:01:44;6.47;;;3.03;;
23304;SDS011;11821;51.456;8.844;2022-10-04T12:05:22;3.55;;;1.90;;
23304;SDS011;11821;51.456;8.844;2022-10-04T12:07:44;4.93;;;1.90;;
23304;SDS011;11821;51.456;8.844;2022-10-04T12:10:34;6.20;;;2.30;;
23304;SDS011;11821;51.456;8.844;2022-10-04T12:30:21;6.65;;;2.45;;
23304;SDS011;11821;51.456;8.844;2022-10-04T12:33:13;6.43;;;2.42;;
23304;SDS011;11821;51.456;8.844;2022-10-04T12:44:21;4.22;;;2.33;;
23304;SDS011;11821;51.456;8.844;2022-10-04T12:46:56;5.55;;;2.00;;
23304;SDS011;11821;51.456;8.844;2022-10-04T12:54:42;4.72;;;2.45;;
23304;SDS011;11821;51.456;8.844;2022-10-04T13:16:05;5.65;;;1.75;;
23304;SDS011;11821;51.456;8.844;2022-10-04T14:01:46;4.00;;;2.42;;
23304;SDS011;11821;51.456;8.844;2022-10-04T14:04:34;5.75;;;2.25;;
23304;SDS011;11821;51.456;8.844;2022-10-04T14:07:55;3.72;;;2.10;;
23304;SDS011;11821;51.456;8.844;2022-10-04T14:27:02;2.63;;;1.70;;
23304;SDS011;11821;51.456;8.844;2022-10-04T15:02:46;3.50;;;2.20;;
23304;SDS011;11821;51.456;8.844;2022-10-04T15:11:39;5.25;;;2.42;;
23304;SDS011;11821;51.456;8.844;2022-10-04T15:14:22;4.07;;;2.20;;
23304;SDS011;11821;51.456;8.844;2022-10-04T15:17:04;8.02;;;2.67;;
23304;SDS011;11821;51.456;8.844;2022-10-04T15:22:54;4.07;;;2.30;;
23304;SDS011;11821;51.456;8.844;2022-10-04T15:25:43;5.75;;;2.05;;
23304;SDS011;11821;51.456;8.844;2022-10-04T15:45:27;4.38;;;2.17;;
23304;SDS011;11821;51.456;8.844;2022-10-04T16:12:28;5.38;;;1.85;;
23304;SDS011;11821;51.456;8.844;2022-10-04T16:15:19;5.07;;;2.20;;
23304;SDS011;11821;51.456;8.844;2022-10-04T16:36:21;5.60;;;4.20;;
23304;SDS011;11821;51.456;8.844;2022-10-04T16:38:53;7.05;;;3.95;;
23304;SDS011;11821;51.456;8.844;2022-10-04T16:42:03;6.53;;;3.92;;
23304;SDS011;11821;51.456;8.844;2022-10-04T16:49:53;5.65;;;3.63;;
23304;SDS011;11821;51.456;8.844;2022-10-04T16:58:34;5.00;;;4.13;;
23304;SDS011;11821;51.456;8.844;2022-10-04T17:09:36;14.55;;;10.43;;
23304;SDS011;11821;51.456;8.844;2022-10-04T17:12:18;11.02;;;6.72;;
23304;SDS011;11821;51.456;8.844;2022-10-04T17:15:55;8.82;;;6.10;;
23304;SDS011;11821;51.456;8.844;2022-10-04T17:18:14;6.35;;;5.38;;
23304;SDS011;11821;51.456;8.844;2022-10-04T17:21:03;8.45;;;6.28;;
23304;SDS011;11821;51.456;8.844;2022-10-04T17:26:41;10.43;;;6.30;;
23304;SDS011;11821;51.456;8.844;2022-10-04T17:32:38;6.70;;;5.78;;
23304;SDS011;11821;51.456;8.844;2022-10-04T17:38:32;8.82;;;5.13;;
23304;SDS011;11821;51.456;8.844;2022-10-04T17:44:25;6.20;;;5.05;;
23304;SDS011;11821;51.456;8.844;2022-10-04T17:50:24;8.85;;;6.15;;
23304;SDS011;11821;51.456;8.844;2022-10-04T17:53:31;12.30;;;7.93;;
23304;SDS011;11821;51.456;8.844;2022-10-04T17:56:30;12.00;;;7.57;;
23304;SDS011;11821;51.456;8.844;2022-10-04T17:59:22;14.38;;;7.38;;
23304;SDS011;11821;51.456;8.844;2022-10-04T18:02:15;14.75;;;7.65;;
23304;SDS011;11821;51.456;8.844;2022-10-04T18:04:58;11.23;;;7.35;;
23304;SDS011;11821;51.456;8.844;2022-10-04T18:07:36;8.27;;;6.60;;
23304;SDS011;11821;51.456;8.844;2022-10-04T18:10:20;7.05;;;6.38;;
23304;SDS011;11821;51.456;8.844;2022-10-04T18:13:00;11.50;;;6.70;;
23304;SDS011;11821;51.456;8.844;2022-10-04T18:15:40;11.80;;;6.93;;
23304;SDS011;11821;51.456;8.844;2022-10-04T18:18:16;8.93;;;7.05;;
23304;SDS011;11821;51.456;8.844;2022-10-04T18:23:17;11.07;;;6.90;;
23304;SDS011;11821;51.456;8.844;2022-10-04T18:25:53;11.13;;;7.03;;
23304;SDS011;11821;51.456;8.844;2022-10-04T18:28:24;9.20;;;7.03;;
23304;SDS011;11821;51.456;8.844;2022-10-04T18:30:51;9.20;;;7.03;;
23304;SDS011;11821;51.456;8.844;2022-10-04T18:36:23;9.85;;;6.07;;
23304;SDS011;11821;51.456;8.844;2022-10-04T18:39:00;10.32;;;5.70;;
23304;SDS011;11821;51.456;8.844;2022-10-04T18:41:36;7.25;;;4.90;;
23304;SDS011;11821;51.456;8.844;2022-10-04T18:44:26;4.95;;;4.18;;
23304;SDS011;11821;51.456;8.844;2022-10-04T18:47:17;8.80;;;4.13;;
23304;SDS011;11821;51.456;8.844;2022-10-04T18:49:52;5.55;;;4.13;;
23304;SDS011;11821;51.456;8.844;2022-10-04T18:52:39;5.30;;;3.83;;
23304;SDS011;11821;51.456;8.844;2022-10-04T18:55:40;4.10;;;3.67;;
23304;SDS011;11821;51.456;8.844;2022-10-04T19:04:20;9.13;;;5.25;;
23304;SDS011;11821;51.456;8.844;2022-10-04T19:06:51;7.82;;;4.90;;
23304;SDS011;11821;51.456;8.844;2022-10-04T19:09:43;5.43;;;4.93;;
23304;SDS011;11821;51.456;8.844;2022-10-04T19:12:30;7.40;;;4.80;;
23304;SDS011;11821;51.456;8.844;2022-10-04T19:26:34;9.93;;;6.90;;
23304;SDS011;11821;51.456;8.844;2022-10-04T19:32:06;8.63;;;5.95;;
23304;SDS011;11821;51.456;8.844;2022-10-04T19:37:30;9.80;;;4.63;;
23304;SDS011;11821;51.456;8.844;2022-10-04T19:42:37;10.85;;;5.45;;
23304;SDS011;11821;51.456;8.844;2022-10-04T19:45:18;8.15;;;4.93;;
23304;SDS011;11821;51.456;8.844;2022-10-04T19:48:10;14.18;;;5.15;;
23304;SDS011;11821;51.456;8.844;2022-10-04T19:50:49;8.07;;;4.88;;
23304;SDS011;11821;51.456;8.844;2022-10-04T19:55:59;12.10;;;5.45;;
23304;SDS011;11821;51.456;8.844;2022-10-04T19:58:41;12.52;;;6.88;;
23304;SDS011;11821;51.456;8.844;2022-10-04T20:01:20;8.60;;;5.65;;
23304;SDS011;11821;51.456;8.844;2022-10-04T20:03:51;5.78;;;5.00;;
23304;SDS011;11821;51.456;8.844;2022-10-04T20:06:36;10.98;;;5.47;;
23304;SDS011;11821;51.456;8.844;2022-10-04T20:09:31;9.50;;;4.93;;
23304;SDS011;11821;51.456;8.844;2022-10-04T20:12:01;7.65;;;5.40;;
23304;SDS011;11821;51.456;8.844;2022-10-04T20:21:55;7.53;;;4.15;;
23304;SDS011;11821;51.456;8.844;2022-10-04T20:27:04;5.03;;;4.32;;
23304;SDS011;11821;51.456;8.844;2022-10-04T20:29:56;6.95;;;5.18;;
23304;SDS011;11821;51.456;8.844;2022-10-04T20:35:02;14.52;;;8.00;;
23304;SDS011;11821;51.456;8.844;2022-10-04T20:48:21;7.80;;;6.15;;
23304;SDS011;11821;51.456;8.844;2022-10-04T20:50:55;8.18;;;4.70;;
23304;SDS011;11821;51.456;8.844;2022-10-04T20:53:33;6.55;;;4.55;;
23304;SDS011;11821;51.456;8.844;2022-10-04T20:56:10;5.25;;;4.30;;
23304;SDS011;11821;51.456;8.844;2022-10-04T20:58:51;5.00;;;4.18;;
23304;SDS011;11821;51.456;8.844;2022-10-04T21:06:55;6.05;;;5.05;;
23304;SDS011;11821;51.456;8.844;2022-10-04T21:09:23;6.40;;;4.40;;
23304;SDS011;11821;51.456;8.844;2022-10-04T21:11:53;6.28;;;4.75;;
23304;SDS011;11821;51.456;8.844;2022-10-04T21:16:51;7.68;;;4.53;;
23304;SDS011;11821;51.456;8.844;2022-10-04T21:27:04;7.85;;;3.90;;
23304;SDS011;11821;51.456;8.844;2022-10-04T21:29:35;9.60;;;3.88;;
23304;SDS011;11821;51.456;8.844;2022-10-04T21:32:02;6.13;;;4.70;;
23304;SDS011;11821;51.456;8.844;2022-10-04T21:34:29;10.73;;;4.30;;
23304;SDS011;11821;51.456;8.844;2022-10-04T21:36:55;4.35;;;3.83;;
23304;SDS011;11821;51.456;8.844;2022-10-04T21:39:23;4.97;;;4.13;;
23304;SDS011;11821;51.456;8.844;2022-10-04T21:41:49;5.90;;;4.22;;
23304;SDS011;11821;51.456;8.844;2022-10-04T21:44:15;5.90;;;3.80;;
23304;SDS011;11821;51.456;8.844;2022-10-04T21:46:42;5.18;;;4.03;;
23304;SDS011;11821;51.456;8.844;2022-10-04T21:49:08;6.40;;;4.43;;
23304;SDS011;11821;51.456;8.844;2022-10-04T21:51:34;6.43;;;4.95;;
23304;SDS011;11821;51.456;8.844;2022-10-04T21:54:02;14.60;;;5.55;;
23304;SDS011;11821;51.456;8.844;2022-10-04T21:56:28;6.25;;;5.65;;
23304;SDS011;11821;51.456;8.844;2022-10-04T21:58:55;8.23;;;5.07;;
23304;SDS011;11821;51.456;8.844;2022-10-04T22:01:21;5.55;;;4.90;;
23304;SDS011;11821;51.456;8.844;2022-10-04T22:03:47;5.78;;;4.20;;
23304;SDS011;11821;51.456;8.844;2022-10-04T22:06:14;4.28;;;3.80;;
23304;SDS011;11821;51.456;8.844;2022-10-04T22:08:40;7.82;;;3.88;;
23304;SDS011;11821;51.456;8.844;2022-10-04T22:11:08;4.88;;;4.03;;
23304;SDS011;11821;51.456;8.844;2022-10-04T22:13:35;7.70;;;4.25;;
23304;SDS011;11821;51.456;8.844;2022-10-04T22:16:01;4.90;;;4.40;;
23304;SDS011;11821;51.456;8.844;2022-10-04T22:18:28;7.47;;;5.03;;
23304;SDS011;11821;51.456;8.844;2022-10-04T22:20:55;8.30;;;4.25;;
23304;SDS011;11821;51.456;8.844;2022-10-04T22:23:22;5.22;;;3.70;;
23304;SDS011;11821;51.456;8.844;2022-10-04T22:25:51;5.75;;;4.60;;
23304;SDS011;11821;51.456;8.844;2022-10-04T22:30:51;9.02;;;4.72;;
23304;SDS011;11821;51.456;8.844;2022-10-04T22:33:29;8.55;;;4.50;;
23304;SDS011;11821;51.456;8.844;2022-10-04T22:35:59;4.85;;;4.35;;
23304;SDS011;11821;51.456;8.844;2022-10-04T22:38:40;6.90;;;5.03;;
23304;SDS011;11821;51.456;8.844;2022-10-04T22:41:14;13.93;;;8.18;;
23304;SDS011;11821;51.456;8.844;2022-10-04T22:43:44;10.80;;;6.60;;
23304;SDS011;11821;51.456;8.844;2022-10-04T22:46:15;8.68;;;5.28;;
23304;SDS011;11821;51.456;8.844;2022-10-04T22:48:44;6.47;;;4.78;;
23304;SDS011;11821;51.456;8.844;2022-10-04T22:51:12;5.70;;;4.50;;
23304;SDS011;11821;51.456;8.844;2022-10-04T22:53:40;9.65;;;4.70;;
23304;SDS011;11821;51.456;8.844;2022-10-04T22:56:08;6.45;;;4.68;;
23304;SDS011;11821;51.456;8.844;2022-10-04T22:58:34;5.00;;;4.50;;
23304;SDS011;11821;51.456;8.844;2022-10-04T23:01:01;7.72;;;4.90;;
23304;SDS011;11821;51.456;8.844;2022-10-04T23:03:29;6.55;;;4.60;;
23304;SDS011;11821;51.456;8.844;2022-10-04T23:05:58;9.48;;;5.07;;
23304;SDS011;11821;51.456;8.844;2022-10-04T23:08:26;8.38;;;5.30;;
23304;SDS011;11821;51.456;8.844;2022-10-04T23:10:54;11.50;;;6.05;;
23304;SDS011;11821;51.456;8.844;2022-10-04T23:13:24;12.27;;;6.63;;
23304;SDS011;11821;51.456;8.844;2022-10-04T23:15:51;12.75;;;5.70;;
23304;SDS011;11821;51.456;8.844;2022-10-04T23:18:22;8.40;;;5.75;;
23304;SDS011;11821;51.456;8.844;2022-10-04T23:20:50;8.55;;;5.18;;
23304;SDS011;11821;51.456;8.844;2022-10-04T23:23:20;7.82;;;4.65;;
23304;SDS011;11821;51.456;8.844;2022-10-04T23:25:47;5.63;;;4.88;;
23304;SDS011;11821;51.456;8.844;2022-10-04T23:28:15;10.13;;;4.93;;
23304;SDS011;11821;51.456;8.844;2022-10-04T23:31:06;10.63;;;5.07;;
23304;SDS011;11821;51.456;8.844;2022-10-04T23:33:33;7.05;;;4.78;;
23304;SDS011;11821;51.456;8.844;2022-10-04T23:35:59;6.95;;;4.45;;
23304;SDS011;11821;51.456;8.844;2022-10-04T23:38:26;8.07;;;4.28;;
23304;SDS011;11821;51.456;8.844;2022-10-04T23:40:54;5.53;;;3.90;;
23304;SDS011;11821;51.456;8.844;2022-10-04T23:43:22;6.07;;;4.45;;
23304;SDS011;11821;51.456;8.844;2022-10-04T23:45:54;7.57;;;4.78;;
23304;SDS011;11821;51.456;8.844;2022-10-04T23:48:23;11.00;;;5.23;;
23304;SDS011;11821;51.456;8.844;2022-10-04T23:50:51;5.63;;;5.03;;
23304;SDS011;11821;51.456;8.844;2022-10-04T23:53:24;9.77;;;4.70;;
23304;SDS011;11821;51.456;8.844;2022-10-04T23:55:53;6.97;;;4.78;;
23304;SDS011;11821;51.456;8.844;2022-10-04T23:58:25;7.03;;;4.93;;
